O Fallon, Illinois
Current Conditions -  °F | °C
As of 4:58 AM on Thursday 27 Nov 2014 (Local Time) from KBLV Reporting Station
Overcast Overcast  
Wind Chill: 21°   Ceiling: 1500
Heat Index: 29°   Visibility: 10mi
Dew Point: 28°   Wind: 9mph
Humidity: 96%   Direction: 320°NW
Pressure: 30.38"   Gusts: NA
Location:  38.6074°N, 89.8929°W
Report Text: KBLV 271058Z AUTO 32008KT 10SM BKN015 OVC021 M02/M02 A3038 RMK AO2 SLP296 T10161021
Loading
Personal Weather Stations






























Interactive Weather Map New forecast layout! Learn more

10-Day Weather Forecast

Advertisements
Track Severe Weather on mobile